createdAt,value
2022-08-24T00:02:01.426Z,5.82
2022-08-24T00:04:32.103Z,4.35
2022-08-24T00:07:02.163Z,4.82
2022-08-24T00:09:32.415Z,4.53
2022-08-24T00:12:00.722Z,4.20
2022-08-24T00:14:28.135Z,4.55
2022-08-24T00:16:55.577Z,5.05
2022-08-24T00:19:23.445Z,3.63
2022-08-24T00:21:52.101Z,3.63
2022-08-24T00:24:20.750Z,3.25
2022-08-24T00:26:48.829Z,3.15
2022-08-24T00:29:18.312Z,4.78
2022-08-24T00:31:45.676Z,5.75
2022-08-24T00:34:13.902Z,7.93
2022-08-24T00:36:42.340Z,4.53
2022-08-24T00:39:10.376Z,5.70
2022-08-24T00:41:44.376Z,5.75
2022-08-24T00:44:13.978Z,2.75
2022-08-24T00:47:07.567Z,3.65
2022-08-24T00:50:12.186Z,3.80
2022-08-24T00:52:50.428Z,4.13
2022-08-24T00:55:27.148Z,2.67
2022-08-24T00:58:03.444Z,3.70
2022-08-24T01:00:40.703Z,4.57
2022-08-24T01:03:14.097Z,5.03
2022-08-24T01:05:41.939Z,5.72
2022-08-24T01:08:12.597Z,2.90
2022-08-24T01:11:02.048Z,3.72
2022-08-24T01:13:31.197Z,4.78
2022-08-24T01:16:03.771Z,4.15
2022-08-24T01:18:49.976Z,3.85
2022-08-24T01:21:32.245Z,8.13
2022-08-24T01:24:05.638Z,7.90
2022-08-24T01:26:47.510Z,5.25
2022-08-24T01:29:23.679Z,3.55
2022-08-24T01:31:52.690Z,6.80
2022-08-24T01:34:21.340Z,6.55
2022-08-24T01:36:56.191Z,2.30
2022-08-24T01:39:32.991Z,3.90
2022-08-24T01:42:01.767Z,4.72
2022-08-24T01:44:34.630Z,4.13
2022-08-24T01:47:07.552Z,3.80
2022-08-24T01:49:41.631Z,5.72
2022-08-24T01:52:15.485Z,3.47
2022-08-24T01:54:43.708Z,5.55
2022-08-24T01:57:14.952Z,4.88
2022-08-24T01:59:44.333Z,6.25
2022-08-24T02:02:26.147Z,4.45
2022-08-24T02:04:54.164Z,4.47
2022-08-24T02:07:22.676Z,3.92
2022-08-24T02:09:50.823Z,6.47
2022-08-24T02:12:19.840Z,4.22
2022-08-24T02:14:48.142Z,6.57
2022-08-24T02:17:16.079Z,6.70
2022-08-24T02:19:44.008Z,5.35
2022-08-24T02:22:12.230Z,4.85
2022-08-24T02:24:40.309Z,4.47
2022-08-24T02:27:08.264Z,3.47
2022-08-24T02:29:35.965Z,4.15
2022-08-24T02:32:04.577Z,7.15
2022-08-24T02:34:31.861Z,3.10
2022-08-24T02:36:59.898Z,4.88
2022-08-24T02:39:28.145Z,4.70
2022-08-24T02:41:56.464Z,4.55
2022-08-24T02:44:24.009Z,4.13
2022-08-24T02:46:51.236Z,6.70
2022-08-24T02:49:21.313Z,4.50
2022-08-24T02:51:50.590Z,2.95
2022-08-24T02:54:21.095Z,3.38
2022-08-24T02:56:51.578Z,7.18
2022-08-24T02:59:19.231Z,3.42
2022-08-24T03:01:49.819Z,3.17
2022-08-24T03:04:19.240Z,4.97
2022-08-24T03:06:47.369Z,7.03
2022-08-24T03:09:15.401Z,5.97
2022-08-24T03:11:45.157Z,6.63
2022-08-24T03:14:14.357Z,8.07
2022-08-24T03:16:42.388Z,5.28
2022-08-24T03:19:09.853Z,9.48
2022-08-24T03:21:38.542Z,7.32
2022-08-24T03:24:06.335Z,11.38
2022-08-24T03:26:34.282Z,4.97
2022-08-24T03:29:01.957Z,7.57
2022-08-24T03:31:32.489Z,4.90
2022-08-24T03:34:00.574Z,6.75
2022-08-24T03:36:28.099Z,4.07
2022-08-24T03:38:55.521Z,7.18
2022-08-24T03:41:23.738Z,4.72
2022-08-24T03:43:51.270Z,2.70
2022-08-24T03:46:29.288Z,3.63
2022-08-24T03:48:58.833Z,3.22
2022-08-24T03:51:29.185Z,6.18
2022-08-24T03:54:02.257Z,4.97
2022-08-24T03:56:29.888Z,3.05
2022-08-24T03:58:57.736Z,3.38
2022-08-24T04:01:28.913Z,5.18
2022-08-24T04:03:56.831Z,6.00
2022-08-24T04:06:29.764Z,5.47
2022-08-24T04:08:57.549Z,3.42
2022-08-24T04:11:29.448Z,4.25
2022-08-24T04:13:58.822Z,4.55
2022-08-24T04:16:28.994Z,4.25
2022-08-24T04:19:08.284Z,3.65
2022-08-24T04:21:37.479Z,5.10
2022-08-24T04:24:10.388Z,2.85
2022-08-24T04:26:44.894Z,4.28
2022-08-24T04:29:19.376Z,4.47
2022-08-24T04:31:53.391Z,4.90
2022-08-24T04:34:21.550Z,5.88
2022-08-24T04:36:49.335Z,3.60
2022-08-24T04:39:16.709Z,4.38
2022-08-24T04:42:07.114Z,4.15
2022-08-24T04:44:39.688Z,5.30
2022-08-24T04:47:08.385Z,5.90
2022-08-24T04:49:38.190Z,4.88
2022-08-24T04:52:08.238Z,5.15
2022-08-24T04:54:35.748Z,2.65
2022-08-24T04:57:12.505Z,4.43
2022-08-24T04:59:43.850Z,3.75
2022-08-24T05:02:12.807Z,4.80
2022-08-24T05:04:40.416Z,3.08
2022-08-24T05:07:08.337Z,3.22
2022-08-24T05:09:35.709Z,5.38
2022-08-24T05:12:03.875Z,7.60
2022-08-24T05:14:36.481Z,4.63
2022-08-24T05:17:04.132Z,5.03
2022-08-24T05:19:32.535Z,4.70
2022-08-24T05:22:00.775Z,4.78
2022-08-24T05:24:28.554Z,4.88
2022-08-24T05:26:56.979Z,5.55
2022-08-24T05:29:27.058Z,4.28
2022-08-24T05:31:54.773Z,2.08
2022-08-24T05:34:23.875Z,3.70
2022-08-24T05:36:51.615Z,3.80
2022-08-24T05:39:31.077Z,4.22
2022-08-24T05:41:59.867Z,3.42
2022-08-24T05:44:31.384Z,5.30
2022-08-24T05:47:02.877Z,3.42
2022-08-24T05:49:31.244Z,5.32
2022-08-24T05:51:59.710Z,5.50
2022-08-24T05:54:27.062Z,5.25
2022-08-24T05:57:06.330Z,4.80
2022-08-24T05:59:40.681Z,4.07
2022-08-24T06:02:15.440Z,4.32
2022-08-24T06:04:43.131Z,4.57
2022-08-24T06:07:13.609Z,6.75
2022-08-24T06:09:44.782Z,11.13
2022-08-24T06:12:14.192Z,5.60
2022-08-24T06:14:47.842Z,4.85
2022-08-24T06:17:18.015Z,8.50
2022-08-24T06:19:45.569Z,3.83
2022-08-24T06:22:12.931Z,4.45
2022-08-24T06:24:59.915Z,10.48
2022-08-24T06:27:29.447Z,6.55
2022-08-24T06:30:05.709Z,9.63
2022-08-24T06:33:02.260Z,8.77
2022-08-24T06:35:46.855Z,5.60
2022-08-24T06:38:14.724Z,7.03
2022-08-24T06:40:43.771Z,11.52
2022-08-24T06:43:11.737Z,6.18
2022-08-24T06:45:54.845Z,5.88
2022-08-24T06:48:27.957Z,4.05
2022-08-24T06:50:56.100Z,4.15
2022-08-24T06:53:23.856Z,5.97
2022-08-24T06:55:56.878Z,8.77
2022-08-24T06:58:28.312Z,6.93
2022-08-24T07:00:57.030Z,3.95
2022-08-24T07:03:25.757Z,2.85
2022-08-24T07:06:04.813Z,5.47
2022-08-24T07:08:43.097Z,6.57
2022-08-24T07:11:17.967Z,4.45
2022-08-24T07:13:50.165Z,4.50
2022-08-24T07:16:20.634Z,3.83
2022-08-24T07:18:52.038Z,2.63
2022-08-24T07:21:22.452Z,4.05
2022-08-24T07:23:59.091Z,9.25
2022-08-24T07:26:30.188Z,4.57
2022-08-24T07:29:07.616Z,6.70
2022-08-24T07:31:42.961Z,5.35
2022-08-24T07:34:42.458Z,9.80
2022-08-24T07:37:09.994Z,7.13
2022-08-24T07:39:41.065Z,4.47
2022-08-24T07:42:13.758Z,3.03
2022-08-24T07:44:45.236Z,7.25
2022-08-24T07:47:37.091Z,5.85
2022-08-24T07:50:02.080Z,6.82
2022-08-24T07:52:30.350Z,4.85
2022-08-24T07:54:58.140Z,6.20
2022-08-24T07:57:25.746Z,3.85
2022-08-24T07:59:55.428Z,6.68
2022-08-24T08:02:22.765Z,3.38
2022-08-24T08:04:56.548Z,1.95
2022-08-24T08:07:23.821Z,3.35
2022-08-24T08:09:52.174Z,5.45
2022-08-24T08:12:19.610Z,3.20
2022-08-24T08:14:57.374Z,4.53
2022-08-24T08:17:25.305Z,5.22
2022-08-24T08:19:52.865Z,5.35
2022-08-24T08:22:39.541Z,2.78
2022-08-24T08:25:27.095Z,4.35
2022-08-24T08:27:56.851Z,4.47
2022-08-24T08:30:28.557Z,3.00
2022-08-24T08:32:55.989Z,8.05
2022-08-24T08:35:23.292Z,2.15
2022-08-24T08:37:50.815Z,6.32
2022-08-24T08:40:45.112Z,3.72
2022-08-24T08:43:48.858Z,3.88
2022-08-24T08:46:56.969Z,4.32
2022-08-24T08:50:04.426Z,4.07
2022-08-24T08:53:28.785Z,3.42
2022-08-24T08:56:52.529Z,4.85
2022-08-24T08:59:51.752Z,4.63
2022-08-24T09:02:50.657Z,8.40
2022-08-24T09:05:47.281Z,6.30
2022-08-24T09:08:40.441Z,4.55
2022-08-24T09:11:49.560Z,6.55
2022-08-24T09:15:10.462Z,5.35
2022-08-24T09:17:47.956Z,3.05
2022-08-24T09:20:28.963Z,4.80
2022-08-24T09:23:54.327Z,5.60
2022-08-24T09:26:50.772Z,3.08
2022-08-24T09:29:43.212Z,3.55
2022-08-24T09:33:09.034Z,6.55
2022-08-24T09:36:13.978Z,7.45
2022-08-24T09:39:32.361Z,5.43
2022-08-24T09:42:37.213Z,4.80
2022-08-24T09:46:06.757Z,5.53
2022-08-24T09:49:02.059Z,5.47
2022-08-24T09:52:21.481Z,4.53
2022-08-24T09:55:04.789Z,5.00
2022-08-24T09:58:30.172Z,6.55
2022-08-24T10:01:36.669Z,8.15
2022-08-24T10:05:02.103Z,6.43
2022-08-24T10:08:25.753Z,5.55
2022-08-24T10:11:02.542Z,7.28
2022-08-24T10:14:03.813Z,4.00
2022-08-24T10:17:05.318Z,5.10
2022-08-24T10:20:23.771Z,4.85
2022-08-24T10:23:27.135Z,3.22
2022-08-24T10:26:23.741Z,3.90
2022-08-24T10:29:26.049Z,4.38
2022-08-24T10:32:47.923Z,2.97
2022-08-24T10:35:38.949Z,4.03
2022-08-24T10:38:48.925Z,3.88
2022-08-24T10:41:29.209Z,2.38
2022-08-24T10:44:25.008Z,3.08
2022-08-24T10:47:07.084Z,5.20
2022-08-24T10:49:37.385Z,4.10
2022-08-24T10:52:30.158Z,3.90
2022-08-24T10:55:31.464Z,3.67
2022-08-24T10:58:34.281Z,5.80
2022-08-24T11:01:33.865Z,5.10
2022-08-24T11:04:12.336Z,4.25
2022-08-24T11:07:01.490Z,3.13
2022-08-24T11:10:01.140Z,4.20
2022-08-24T11:12:40.277Z,3.53
2022-08-24T11:15:24.852Z,5.05
2022-08-24T11:18:01.066Z,5.10
2022-08-24T11:20:43.037Z,4.03
2022-08-24T11:23:22.361Z,5.40
2022-08-24T11:26:06.551Z,4.82
2022-08-24T11:28:54.817Z,4.65
2022-08-24T11:31:44.434Z,5.63
2022-08-24T11:34:37.861Z,6.22
2022-08-24T11:37:15.751Z,7.10
2022-08-24T11:39:43.207Z,5.88
2022-08-24T11:42:55.152Z,3.67
2022-08-24T11:46:00.377Z,4.78
2022-08-24T11:48:57.421Z,5.75
2022-08-24T11:52:11.837Z,7.60
2022-08-24T11:55:10.772Z,4.88
2022-08-24T11:58:43.522Z,3.40
2022-08-24T12:01:36.390Z,7.00
2022-08-24T12:04:57.793Z,5.55
2022-08-24T12:08:14.727Z,6.03
2022-08-24T12:14:14.868Z,6.15
2022-08-24T12:17:19.052Z,5.60
2022-08-24T12:20:01.301Z,4.30
2022-08-24T12:22:31.652Z,8.70
2022-08-24T12:25:25.377Z,4.85
2022-08-24T12:27:54.269Z,6.82
2022-08-24T12:30:22.641Z,5.88
2022-08-24T12:33:14.002Z,7.95
2022-08-24T12:35:46.469Z,7.55
2022-08-24T12:38:28.077Z,4.93
2022-08-24T12:41:21.123Z,4.07
2022-08-24T12:43:58.818Z,5.53
2022-08-24T12:46:27.216Z,5.28
2022-08-24T12:49:05.414Z,3.75
2022-08-24T12:52:22.879Z,4.68
2022-08-24T12:55:14.169Z,6.43
2022-08-24T12:58:54.601Z,8.48
2022-08-24T13:01:29.805Z,6.13
2022-08-24T13:04:39.029Z,4.65
2022-08-24T13:07:30.974Z,6.20
2022-08-24T13:09:58.082Z,3.30
2022-08-24T13:12:46.265Z,7.07
2022-08-24T13:15:31.748Z,3.63
2022-08-24T13:18:14.197Z,7.75
2022-08-24T13:20:44.636Z,5.65
2022-08-24T13:23:24.432Z,5.97
2022-08-24T13:25:59.072Z,5.63
2022-08-24T13:28:47.801Z,6.47
2022-08-24T13:31:38.592Z,7.05
2022-08-24T13:34:16.693Z,3.50
2022-08-24T13:37:22.639Z,4.90
2022-08-24T13:43:19.577Z,4.03
2022-08-24T13:46:13.260Z,2.40
2022-08-24T13:49:21.072Z,4.00
2022-08-24T13:52:14.928Z,4.65
2022-08-24T13:55:20.601Z,5.18
2022-08-24T13:58:43.462Z,3.90
2022-08-24T14:01:33.230Z,5.43
2022-08-24T14:04:25.000Z,3.75
2022-08-24T14:07:29.329Z,4.18
2022-08-24T14:10:09.149Z,4.00
2022-08-24T14:13:04.912Z,4.75
2022-08-24T14:16:25.106Z,2.42
2022-08-24T14:19:07.173Z,3.00
2022-08-24T14:22:03.855Z,2.65
2022-08-24T14:25:14.650Z,4.38
2022-08-24T14:28:06.924Z,3.13
2022-08-24T14:30:43.326Z,3.92
2022-08-24T14:33:30.303Z,3.28
2022-08-24T14:36:39.185Z,4.15
2022-08-24T14:39:43.895Z,5.60
2022-08-24T14:43:19.392Z,5.57
2022-08-24T14:46:06.760Z,7.13
2022-08-24T14:49:39.091Z,4.68
2022-08-24T14:53:02.037Z,4.85
2022-08-24T14:56:10.373Z,5.78
2022-08-24T14:59:06.871Z,2.63
2022-08-24T15:01:48.355Z,5.00
2022-08-24T15:04:43.681Z,4.18
2022-08-24T15:08:01.530Z,3.28
2022-08-24T15:10:51.220Z,7.78
2022-08-24T15:13:59.512Z,4.35
2022-08-24T15:16:39.000Z,4.32
2022-08-24T15:19:54.900Z,5.28
2022-08-24T15:22:58.255Z,4.20
2022-08-24T15:26:04.793Z,4.22
2022-08-24T15:28:34.596Z,8.00
2022-08-24T15:31:10.900Z,4.53
2022-08-24T15:36:36.439Z,5.55
2022-08-24T15:41:47.149Z,5.38
2022-08-24T15:44:24.679Z,4.95
2022-08-24T15:47:13.747Z,6.68
2022-08-24T15:50:21.069Z,4.95
2022-08-24T15:53:06.948Z,5.82
2022-08-24T15:55:42.862Z,4.85
2022-08-24T15:58:37.547Z,10.20
2022-08-24T16:01:32.488Z,5.72
2022-08-24T16:06:48.821Z,5.40
2022-08-24T16:09:20.925Z,6.60
2022-08-24T16:11:57.170Z,5.85
2022-08-24T16:14:31.686Z,5.57
2022-08-24T16:17:34.716Z,6.70
2022-08-24T16:20:14.041Z,6.32
2022-08-24T16:23:31.557Z,3.97
2022-08-24T16:26:32.010Z,6.75
2022-08-24T16:29:00.411Z,4.72
2022-08-24T16:31:51.912Z,5.03
2022-08-24T16:34:29.828Z,2.75
2022-08-24T16:36:57.977Z,6.40
2022-08-24T16:39:26.045Z,5.68
2022-08-24T16:42:06.489Z,6.30
2022-08-24T16:44:39.777Z,5.63
2022-08-24T16:47:08.606Z,5.70
2022-08-24T16:49:37.628Z,9.75
2022-08-24T16:52:05.352Z,6.05
2022-08-24T16:54:33.226Z,14.32
2022-08-24T16:57:14.985Z,7.05
2022-08-24T16:59:46.851Z,4.25
2022-08-24T17:02:17.005Z,6.40
2022-08-24T17:04:45.886Z,5.15
2022-08-24T17:07:21.348Z,2.95
2022-08-24T17:09:49.448Z,4.40
2022-08-24T17:12:17.233Z,4.72
2022-08-24T17:14:44.951Z,3.35
2022-08-24T17:17:22.153Z,4.85
2022-08-24T17:19:53.569Z,7.80
2022-08-24T17:22:28.396Z,6.53
2022-08-24T17:24:55.764Z,3.90
2022-08-24T17:27:32.411Z,6.78
2022-08-24T17:30:03.794Z,4.93
2022-08-24T17:32:31.918Z,8.02
2022-08-24T17:34:59.246Z,5.07
2022-08-24T17:37:27.160Z,6.82
2022-08-24T17:39:58.333Z,4.22
2022-08-24T17:42:49.683Z,5.30
2022-08-24T17:45:13.776Z,6.45
2022-08-24T17:47:43.305Z,3.75
2022-08-24T17:50:14.661Z,5.07
2022-08-24T17:52:43.386Z,8.50
2022-08-24T17:55:13.966Z,10.40
2022-08-24T17:57:44.571Z,7.15
2022-08-24T18:00:16.123Z,5.03
2022-08-24T18:02:44.028Z,4.88
2022-08-24T18:05:13.703Z,6.85
2022-08-24T18:07:54.434Z,8.07
2022-08-24T18:10:32.145Z,9.73
2022-08-24T18:13:02.130Z,12.68
2022-08-24T18:15:34.553Z,19.77
2022-08-24T18:18:08.698Z,14.70
2022-08-24T18:20:40.728Z,11.63
2022-08-24T18:23:11.154Z,16.60
2022-08-24T18:25:50.791Z,11.80
2022-08-24T18:28:22.238Z,5.28
2022-08-24T18:30:51.700Z,13.02
2022-08-24T18:33:24.244Z,6.20
2022-08-24T18:35:51.845Z,14.07
2022-08-24T18:38:19.159Z,8.43
2022-08-24T18:40:52.325Z,6.13
2022-08-24T18:43:24.272Z,15.85
2022-08-24T18:45:53.058Z,31.90
2022-08-24T18:48:22.107Z,32.72
2022-08-24T18:50:51.202Z,29.48
2022-08-24T18:53:19.522Z,30.33
2022-08-24T18:55:48.002Z,22.70
2022-08-24T18:58:15.475Z,15.82
2022-08-24T19:00:43.299Z,14.02
2022-08-24T19:03:18.691Z,10.85
2022-08-24T19:05:46.440Z,12.93
2022-08-24T19:08:13.777Z,11.25
2022-08-24T19:10:41.258Z,8.30
2022-08-24T19:13:18.244Z,8.20
2022-08-24T19:15:48.649Z,6.93
2022-08-24T19:18:20.512Z,9.93
2022-08-24T19:20:55.350Z,5.22
2022-08-24T19:23:32.521Z,8.80
2022-08-24T19:26:03.511Z,11.00
2022-08-24T19:28:31.832Z,8.40
2022-08-24T19:31:04.688Z,13.52
2022-08-24T19:33:41.915Z,8.30
2022-08-24T19:36:09.599Z,12.38
2022-08-24T19:38:37.059Z,9.73
2022-08-24T19:41:11.620Z,9.75
2022-08-24T19:44:01.389Z,5.85
2022-08-24T19:46:28.757Z,7.13
2022-08-24T19:48:56.216Z,7.35
2022-08-24T19:51:23.701Z,7.20
2022-08-24T19:53:50.959Z,5.53
2022-08-24T19:56:18.620Z,6.22
2022-08-24T19:58:57.946Z,8.63
2022-08-24T20:01:36.535Z,7.15
2022-08-24T20:04:07.954Z,7.18
2022-08-24T20:06:37.453Z,4.72
2022-08-24T20:09:05.352Z,12.27
2022-08-24T20:11:33.358Z,5.72
2022-08-24T20:14:02.513Z,5.88
2022-08-24T20:16:42.134Z,6.10
2022-08-24T20:19:11.748Z,7.45
2022-08-24T20:21:39.771Z,4.03
2022-08-24T20:24:07.323Z,4.22
2022-08-24T20:26:43.877Z,6.40
2022-08-24T20:29:12.741Z,6.28
2022-08-24T20:31:40.771Z,8.02
2022-08-24T20:34:08.112Z,6.35
2022-08-24T20:36:45.007Z,8.88
2022-08-24T20:39:14.480Z,13.60
2022-08-24T20:41:41.756Z,4.57
2022-08-24T20:44:09.284Z,6.55
2022-08-24T20:46:38.837Z,6.82
2022-08-24T20:49:08.258Z,8.75
2022-08-24T20:51:42.792Z,9.57
2022-08-24T20:54:11.316Z,12.80
2022-08-24T20:56:38.945Z,5.78
2022-08-24T20:59:10.641Z,6.95
2022-08-24T21:01:42.256Z,6.97
2022-08-24T21:04:10.121Z,8.35
2022-08-24T21:06:40.404Z,9.40
2022-08-24T21:09:14.038Z,8.10
2022-08-24T21:11:43.366Z,6.53
2022-08-24T21:14:10.667Z,11.82
2022-08-24T21:16:42.101Z,5.75
2022-08-24T21:19:17.345Z,5.78
2022-08-24T21:21:46.979Z,7.60
2022-08-24T21:24:16.149Z,7.40
2022-08-24T21:26:43.716Z,6.72
2022-08-24T21:29:11.339Z,8.57
2022-08-24T21:31:39.595Z,10.52
2022-08-24T21:34:26.693Z,5.65
2022-08-24T21:36:55.532Z,5.88
2022-08-24T21:39:23.097Z,8.63
2022-08-24T21:41:50.305Z,5.75
2022-08-24T21:44:17.583Z,7.15
2022-08-24T21:46:45.454Z,9.75
2022-08-24T21:49:12.835Z,8.32
2022-08-24T21:51:40.674Z,13.05
2022-08-24T21:54:08.310Z,8.85
2022-08-24T21:56:35.693Z,9.57
2022-08-24T21:59:03.690Z,6.07
2022-08-24T22:01:31.577Z,7.10
2022-08-24T22:03:59.235Z,6.55
2022-08-24T22:06:31.290Z,9.88
2022-08-24T22:09:00.602Z,8.07
2022-08-24T22:11:31.512Z,6.70
2022-08-24T22:13:59.671Z,6.95
2022-08-24T22:16:27.067Z,12.70
2022-08-24T22:18:54.991Z,9.50
2022-08-24T22:21:26.256Z,7.28
2022-08-24T22:23:55.253Z,5.88
2022-08-24T22:26:27.980Z,10.07
2022-08-24T22:28:56.720Z,7.35
2022-08-24T22:31:30.025Z,8.75
2022-08-24T22:34:01.094Z,5.57
2022-08-24T22:36:29.738Z,8.93
2022-08-24T22:38:58.884Z,8.65
2022-08-24T22:41:28.627Z,10.95
2022-08-24T22:44:16.698Z,11.65
2022-08-24T22:46:44.164Z,5.90
2022-08-24T22:49:12.986Z,7.43
2022-08-24T22:51:41.554Z,7.70
2022-08-24T22:54:09.906Z,9.30
2022-08-24T22:56:43.836Z,10.73
2022-08-24T22:59:20.390Z,6.40
2022-08-24T23:01:51.969Z,6.78
2022-08-24T23:04:29.251Z,8.85
2022-08-24T23:06:56.734Z,6.28
2022-08-24T23:09:24.322Z,7.07
2022-08-24T23:11:52.467Z,6.57
2022-08-24T23:14:22.284Z,6.07
2022-08-24T23:16:51.622Z,4.80
2022-08-24T23:19:42.892Z,7.57
2022-08-24T23:22:16.361Z,5.45
2022-08-24T23:24:45.218Z,5.68
2022-08-24T23:27:19.537Z,5.65
2022-08-24T23:29:49.240Z,8.20
2022-08-24T23:32:18.825Z,6.32
2022-08-24T23:34:48.433Z,7.30
2022-08-24T23:37:19.526Z,8.80
2022-08-24T23:39:47.303Z,7.47
2022-08-24T23:42:15.068Z,9.68
2022-08-24T23:44:42.637Z,7.10
2022-08-24T23:47:10.328Z,5.93
2022-08-24T23:49:39.698Z,6.13
2022-08-24T23:52:07.561Z,6.30
2022-08-24T23:54:35.305Z,6.50
2022-08-24T23:57:08.334Z,6.53
2022-08-24T23:59:36.284Z,6.53
